createdAt,value
2022-09-07T07:12:14.591Z,8.00
2022-09-07T07:15:17.284Z,6.93
2022-09-07T07:18:21.431Z,7.90
2022-09-07T07:21:24.309Z,7.10
2022-09-07T07:24:26.851Z,6.55
2022-09-07T07:27:31.498Z,7.20
2022-09-07T07:30:33.972Z,7.75
2022-09-07T07:33:36.737Z,7.67
2022-09-07T07:36:39.132Z,6.80
2022-09-07T07:43:05.661Z,6.57
2022-09-07T07:46:13.133Z,9.10
2022-09-07T07:49:16.077Z,8.23
2022-09-07T07:55:46.835Z,7.75
2022-09-07T07:58:49.742Z,7.75
2022-09-07T08:01:52.197Z,8.23
2022-09-07T08:04:54.937Z,7.43
2022-09-07T08:07:58.309Z,7.60
2022-09-07T08:11:07.909Z,8.15
2022-09-07T08:14:10.435Z,7.37
2022-09-07T08:17:14.513Z,7.80
2022-09-07T08:20:16.914Z,7.97
2022-09-07T08:23:20.537Z,7.43
2022-09-07T08:26:30.211Z,8.60
2022-09-07T08:29:35.192Z,6.55
2022-09-07T08:32:37.948Z,7.13
2022-09-07T08:35:40.612Z,6.80
2022-09-07T08:38:42.972Z,6.60
2022-09-07T08:41:51.725Z,7.00
2022-09-07T08:44:57.868Z,7.57
2022-09-07T08:48:00.794Z,7.03
2022-09-07T08:51:24.420Z,7.10
2022-09-07T08:54:27.487Z,6.28
2022-09-07T08:57:31.853Z,7.70
2022-09-07T09:00:36.108Z,6.97
2022-09-07T09:04:15.356Z,8.52
2022-09-07T09:07:22.210Z,6.77
2022-09-07T09:10:56.939Z,7.28
2022-09-07T09:14:23.873Z,6.18
2022-09-07T09:18:02.347Z,6.50
2022-09-07T09:21:07.962Z,6.47
2022-09-07T09:24:20.689Z,5.73
2022-09-07T09:27:24.587Z,5.18
2022-09-07T09:30:28.412Z,6.07
2022-09-07T09:33:31.187Z,6.47
2022-09-07T09:36:35.628Z,6.27
2022-09-07T09:39:38.527Z,5.83
2022-09-07T09:42:41.154Z,5.30
2022-09-07T09:49:18.199Z,5.80
2022-09-07T09:52:31.136Z,5.43
2022-09-07T09:55:36.535Z,5.33
2022-09-07T10:05:56.280Z,6.20
2022-09-07T10:09:00.470Z,5.68
2022-09-07T10:12:07.643Z,5.90
2022-09-07T10:15:24.988Z,5.72
2022-09-07T10:18:34.461Z,5.30
2022-09-07T10:21:36.777Z,5.45
2022-09-07T10:24:39.556Z,5.32
2022-09-07T10:27:42.071Z,4.97
2022-09-07T10:31:15.304Z,5.35
2022-09-07T10:34:33.161Z,5.60
2022-09-07T10:38:18.853Z,5.55
2022-09-07T10:41:22.706Z,5.35
2022-09-07T10:44:31.749Z,5.43
2022-09-07T10:47:55.373Z,6.10
2022-09-07T10:51:13.415Z,5.70
2022-09-07T10:54:43.965Z,5.43
2022-09-07T11:02:11.200Z,5.30
2022-09-07T11:05:32.709Z,5.43
2022-09-07T11:12:14.670Z,5.50
2022-09-07T11:15:21.410Z,6.05
2022-09-07T11:18:26.891Z,4.90
2022-09-07T11:22:03.344Z,6.00
2022-09-07T11:25:32.793Z,5.75
2022-09-07T11:28:44.783Z,5.95
2022-09-07T11:31:55.876Z,6.18
2022-09-07T11:35:06.056Z,6.30
2022-09-07T11:38:21.057Z,6.12
2022-09-07T11:41:41.067Z,6.75
2022-09-07T11:45:03.677Z,6.82
2022-09-07T11:48:11.129Z,6.47
2022-09-07T11:51:26.889Z,6.17
2022-09-07T11:58:29.917Z,6.68
2022-09-07T12:01:58.238Z,6.60
2022-09-07T12:05:24.750Z,6.65
2022-09-07T12:08:54.425Z,7.97
2022-09-07T12:12:13.738Z,7.82
2022-09-07T12:15:25.901Z,8.45
2022-09-07T12:19:02.336Z,7.82
2022-09-07T12:22:28.266Z,8.98
2022-09-07T12:25:31.949Z,9.03
2022-09-07T12:28:34.255Z,9.30
2022-09-07T12:31:57.192Z,8.15
2022-09-07T12:35:00.440Z,9.63
2022-09-07T12:38:06.003Z,9.38
2022-09-07T12:41:22.693Z,8.90
2022-09-07T12:44:29.276Z,9.50
2022-09-07T12:47:31.861Z,10.38
2022-09-07T12:50:39.274Z,10.50
2022-09-07T12:54:00.779Z,11.45
2022-09-07T12:57:30.642Z,11.83
2022-09-07T13:00:50.820Z,11.65
2022-09-07T13:04:16.473Z,11.18
2022-09-07T13:07:28.907Z,11.52
2022-09-07T13:10:41.780Z,11.48
2022-09-07T13:14:04.423Z,11.93
2022-09-07T13:17:29.362Z,12.37
2022-09-07T13:20:36.186Z,11.70
2022-09-07T13:24:45.560Z,12.30
2022-09-07T13:27:39.762Z,12.95
2022-09-07T13:31:00.678Z,12.60
2022-09-07T13:34:23.875Z,13.65
2022-09-07T13:37:26.634Z,13.15
2022-09-07T13:40:33.718Z,13.07
2022-09-07T13:43:36.453Z,13.95
2022-09-07T13:46:48.293Z,13.77
2022-09-07T13:49:56.110Z,13.07
2022-09-07T13:53:27.770Z,11.85
2022-09-07T13:56:30.248Z,13.07
2022-09-07T13:59:34.217Z,13.00
2022-09-07T14:02:36.853Z,12.13
